GPT weather

Gulfport Biloxi International Airport
Gulfport, Mississippi, United States

Public forecast

Using degrees Fahrenheit for public forecast. Weather courtesy of forecast.io.

METAR (pilot weather report)

Retrieved 2019/06/27 05:53 UTC (28 minutes ago):

KGPT 270553Z AUTO 00000KT 10SM CLR 27/23 A3016 RMK AO2 SLP212 T02720228 10306 20272 403390217 50004

TAF (pilot weather forecast)

Retrieved 2019/06/27 06:22 UTC (0 seconds ago):

TAF KGPT 270520Z 2706/2806 VRB04KT P6SM SCT070 BKN250 FM270800 VRB04KT P6SM FEW070 SCT250 FM271300 01005KT P6SM FEW050 SCT250 FM271900 34005KT P6SM FEW050 SCT110